Lady Washington — WAA2820 — position and weather

sailwx.info

Track history (hours):
 
Tides and Currents Weather Stations Pressure Air Temp Water Temp Dewpoint Dewpoint Depression Visibility Wind Speed Wind Dir Waves Ship Positions

Lady Washington (United States)

Ship's website: http://www.historicalseaport.org/LadyWashington.htm

Owner: GRAYS HARBOR HISTORICAL SEAPORT AUTHORIT, ABERDEEN, WA. More information available from US FCC via Universal Licensing System and Coast Guard Vessel Documentation Center.

Last reported at 2017-Mar-16 20:28 UTC. Time now 2017-Mar-26 15:03 UTC.
Position N 37°37' W 122°17'.
Warning: this ship's position is 9 days out of date.

Length 37 m.

Type: Sailing vessel. MMSI: 366945360.

Date/timePositionNaut miles runAvg speedWind from/ knotsBaromVisibWave heightAir tempDewpointWater temp
2017-Mar-16 20:28N 37°37' W 122°17'5 5.8
2017-Mar-16 19:33N 37°41' W 122°20'7 6.6
2017-Mar-16 18:33N 37°48' W 122°23'3 3.1
2017-Mar-16 17:33N 37°49' W 122°26'4 4.4
2017-Mar-16 16:33N 37°48' W 122°21'3 0.2
2017-Mar-16 01:23N 37°48' W 122°17'0 0.0
2017-Mar-15 22:31N 37°48' W 122°17'0 0.0
2017-Mar-15 21:13N 37°48' W 122°17'0 0.0
2017-Mar-15 20:25N 37°48' W 122°17'0 0.0
2017-Mar-15 19:19N 37°48' W 122°17'0 0.0
2017-Mar-14 22:28N 37°48' W 122°17'0 0.2
2017-Mar-14 21:33N 37°47' W 122°17'3 3.3
2017-Mar-14 20:32N 37°47' W 122°21'3 1.3
2017-Mar-14 18:32N 37°48' W 122°18'3 2.7
2017-Mar-14 17:33N 37°47' W 122°21'1 1.2
2017-Mar-14 16:33N 37°48' W 122°20'2 0.4
2017-Mar-14 10:20N 37°48' W 122°17'1 0.1
2017-Mar-13 23:33N 37°48' W 122°18'3 2.9
2017-Mar-13 22:33N 37°47' W 122°21'1 0.7
2017-Mar-13 21:33N 37°47' W 122°22'1 0.9
2017-Mar-13 20:33N 37°48' W 122°21'1 0.6
2017-Mar-13 19:33N 37°47' W 122°21'3 3.1
2017-Mar-13 18:33N 37°48' W 122°17'0 0.1
2017-Mar-13 17:29N 37°48' W 122°17'1 0.1
2017-Mar-12 23:32N 37°48' W 122°18'2 2.4
2017-Mar-12 22:33N 37°47' W 122°21'1 1.3
2017-Mar-12 21:33N 37°48' W 122°20'2 0.1
2017-Mar-12 00:33N 37°48' W 122°17'3 2.9
2017-Mar-11 23:32N 37°48' W 122°21'1 1.0
2017-Mar-11 22:33N 37°48' W 122°20'1 0.4
2017-Mar-11 19:31N 37°48' W 122°19'2 2.1
2017-Mar-11 18:22N 37°47' W 122°22'1 1.6
2017-Mar-11 17:33N 37°48' W 122°20'3 2.4
2017-Mar-11 16:24N 37°48' W 122°17'0 0.0
2017-Mar-11 15:12N 37°48' W 122°17'0 0.0
2017-Mar-11 14:24N 37°48' W 122°17'0 0.0
2017-Mar-11 13:24N 37°48' W 122°17'0 0.0
2017-Mar-11 12:24N 37°48' W 122°17'0 0.0
2017-Mar-11 11:22N 37°48' W 122°17'0 0.0
2017-Mar-11 10:16N 37°48' W 122°17'0 0.0
2017-Mar-11 03:22N 37°48' W 122°17'0 0.0
2017-Mar-11 02:28N 37°48' W 122°17'0 0.0
2017-Mar-11 01:31N 37°48' W 122°17'0 0.0
2017-Mar-11 00:16N 37°48' W 122°17'0 0.0
2017-Mar-10 23:22N 37°48' W 122°17'2 0.5
2017-Mar-10 19:31N 37°48' W 122°19'2 2.1
2017-Mar-10 18:33N 37°48' W 122°22'3 2.8
2017-Mar-10 17:33N 37°48' W 122°18'1 0.2
2017-Mar-10 10:33N 37°48' W 122°17'0 0.0
2017-Mar-09 23:31N 37°48' W 122°17'3 3.3
2017-Mar-09 22:32N 37°48' W 122°21'0 0.2
2017-Mar-09 21:31N 37°48' W 122°21'2 1.3
2017-Mar-09 19:33N 37°48' W 122°18'2 2.2
2017-Mar-09 18:33N 37°48' W 122°21'1 1.4
2017-Mar-09 17:33N 37°48' W 122°19'2 0.1
2017-Mar-08 20:13N 37°48' W 122°17'0 0.0
2017-Mar-07 22:22N 37°48' W 122°17'0 0.0
2017-Mar-07 21:22N 37°48' W 122°17'0 0.0
2017-Mar-07 19:28N 37°48' W 122°17'0 0.0
2017-Mar-07 17:28N 37°48' W 122°17'0 0.0
2017-Mar-07 14:28N 37°48' W 122°17'0 0.0
2017-Mar-07 13:10N 37°48' W 122°17'0 0.0
2017-Mar-07 06:22N 37°48' W 122°17'  
Track history (hours):
 
Tides and Currents Weather Stations Pressure Air Temp Water Temp Dewpoint Dewpoint Depression Visibility Wind Speed Wind Dir Waves Ship Positions

Lady Washington (United States)

Ship's website: http://www.historicalseaport.org/LadyWashington.htm

Owner: GRAYS HARBOR HISTORICAL SEAPORT AUTHORIT, ABERDEEN, WA. More information available from US FCC via Universal Licensing System and Coast Guard Vessel Documentation Center.

Last reported at 2017-Mar-16 20:28 UTC. Time now 2017-Mar-26 15:03 UTC.
Position N 37°37' W 122°17'.
Warning: this ship's position is 9 days out of date.

Length 37 m.

Type: Sailing vessel. MMSI: 366945360.

Date/timePositionNaut miles runAvg speedWind from/ knotsBaromVisibWave heightAir tempDewpointWater temp
2017-Mar-16 20:28N 37°37' W 122°17'5 5.8
2017-Mar-16 19:33N 37°41' W 122°20'7 6.6
2017-Mar-16 18:33N 37°48' W 122°23'3 3.1
2017-Mar-16 17:33N 37°49' W 122°26'4 4.4
2017-Mar-16 16:33N 37°48' W 122°21'3 0.2
2017-Mar-16 01:23N 37°48' W 122°17'0 0.0
2017-Mar-15 22:31N 37°48' W 122°17'0 0.0
2017-Mar-15 21:13N 37°48' W 122°17'0 0.0
2017-Mar-15 20:25N 37°48' W 122°17'0 0.0
2017-Mar-15 19:19N 37°48' W 122°17'0 0.0
2017-Mar-14 22:28N 37°48' W 122°17'0 0.2
2017-Mar-14 21:33N 37°47' W 122°17'3 3.3
2017-Mar-14 20:32N 37°47' W 122°21'3 1.3
2017-Mar-14 18:32N 37°48' W 122°18'3 2.7
2017-Mar-14 17:33N 37°47' W 122°21'1 1.2
2017-Mar-14 16:33N 37°48' W 122°20'2 0.4
2017-Mar-14 10:20N 37°48' W 122°17'1 0.1
2017-Mar-13 23:33N 37°48' W 122°18'3 2.9
2017-Mar-13 22:33N 37°47' W 122°21'1 0.7
2017-Mar-13 21:33N 37°47' W 122°22'1 0.9
2017-Mar-13 20:33N 37°48' W 122°21'1 0.6
2017-Mar-13 19:33N 37°47' W 122°21'3 3.1
2017-Mar-13 18:33N 37°48' W 122°17'0 0.1
2017-Mar-13 17:29N 37°48' W 122°17'1 0.1
2017-Mar-12 23:32N 37°48' W 122°18'2 2.4
2017-Mar-12 22:33N 37°47' W 122°21'1 1.3
2017-Mar-12 21:33N 37°48' W 122°20'2 0.1
2017-Mar-12 00:33N 37°48' W 122°17'3 2.9
2017-Mar-11 23:32N 37°48' W 122°21'1 1.0
2017-Mar-11 22:33N 37°48' W 122°20'1 0.4
2017-Mar-11 19:31N 37°48' W 122°19'2 2.1
2017-Mar-11 18:22N 37°47' W 122°22'1 1.6
2017-Mar-11 17:33N 37°48' W 122°20'3 2.4
2017-Mar-11 16:24N 37°48' W 122°17'0 0.0
2017-Mar-11 15:12N 37°48' W 122°17'0 0.0
2017-Mar-11 14:24N 37°48' W 122°17'0 0.0
2017-Mar-11 13:24N 37°48' W 122°17'0 0.0
2017-Mar-11 12:24N 37°48' W 122°17'0 0.0
2017-Mar-11 11:22N 37°48' W 122°17'0 0.0
2017-Mar-11 10:16N 37°48' W 122°17'0 0.0
2017-Mar-11 03:22N 37°48' W 122°17'0 0.0
2017-Mar-11 02:28N 37°48' W 122°17'0 0.0
2017-Mar-11 01:31N 37°48' W 122°17'0 0.0
2017-Mar-11 00:16N 37°48' W 122°17'0 0.0
2017-Mar-10 23:22N 37°48' W 122°17'2 0.5
2017-Mar-10 19:31N 37°48' W 122°19'2 2.1
2017-Mar-10 18:33N 37°48' W 122°22'3 2.8
2017-Mar-10 17:33N 37°48' W 122°18'1 0.2
2017-Mar-10 10:33N 37°48' W 122°17'0 0.0
2017-Mar-09 23:31N 37°48' W 122°17'3 3.3
2017-Mar-09 22:32N 37°48' W 122°21'0 0.2
2017-Mar-09 21:31N 37°48' W 122°21'2 1.3
2017-Mar-09 19:33N 37°48' W 122°18'2 2.2
2017-Mar-09 18:33N 37°48' W 122°21'1 1.4
2017-Mar-09 17:33N 37°48' W 122°19'2 0.1
2017-Mar-08 20:13N 37°48' W 122°17'0 0.0
2017-Mar-07 22:22N 37°48' W 122°17'0 0.0
2017-Mar-07 21:22N 37°48' W 122°17'0 0.0
2017-Mar-07 19:28N 37°48' W 122°17'0 0.0
2017-Mar-07 17:28N 37°48' W 122°17'0 0.0
2017-Mar-07 14:28N 37°48' W 122°17'0 0.0
2017-Mar-07 13:10N 37°48' W 122°17'0 0.0
2017-Mar-07 06:22N 37°48' W 122°17'  

Dump ship's entire track history